Urb Mar Azul, Puerto Rico
Current Conditions -  °F | °C
As of 1:50 PM on Wednesday 28 Jan 2015 (Local Time) from TJBQ Reporting Station
Scattered Clouds Scattered Clouds  
Wind Chill: 81°   Ceiling: Unl
Heat Index: 83°   Visibility: 10mi
Dew Point: 68°   Wind: 8mph
Humidity: 65%   Direction: 350°N
Pressure: 29.99"   Gusts: NA
Location:  18.4851°N, 66.8257°W
Report Text: TJBQ 281750Z 35007KT 10SM SCT050 27/20 A2999 RMK RWY08 ATIS P
Loading
Personal Weather Stations






























Interactive Weather Map New forecast layout! Learn more

10-Day Weather Forecast

Advertisements
Track Severe Weather on mobile